GMTT/TNG METAR and TAF weather

Enter ICAO airport designator
Station Type Date Time Source
GMTT METAR 2021/03/08 03:30 UTC NOAA

GMTT 080330Z 28010KT 7000 SCT013 BKN020 14/12 Q1015 NOSIG


Station Type Date Time Source
GMTT Decoded METAR 2021/03/08 03:30 UTC NOAA

Tanger Aerodrome , Morocco (GMTT) 35-44N 005-54W 21M
Mar 07, 2021 - 10:30 PM EST / 2021.03.08 0330 UTC
Wind: from the W (280 degrees) at 12 MPH (10 KT):0
Visibility: 4 mile(s):0
Sky conditions: mostly cloudy
Temperature: 57 F (14 C)
Dew Point: 53 F (12 C)
Relative Humidity: 87%
Pressure (altimeter): 29.97 in. Hg (1015 hPa)
ob: GMTT 080330Z 28010KT 7000 SCT013 BKN020 14/12 Q1015 NOSIG
cycle: 3

Station Type Date Time Source
GMTT TAF 2021/03/07 18:16 UTC NOAA

TAF GMTT 071700Z 0718/0824 29005KT 9999 FEW013 SCT033 PROB40
TEMPO 0723/0807 3000 RA BKN015 BKN025

Example: see airport list